Aviation Digital Data Service (ADDS)

Output produced by METARs form (0801 UTC 01 May 2016)
found at http://www.aviationweather.gov/adds/metars/
 
KSBY 010754Z AUTO 12003KT 10SM OVC048 10/08 A3016 RMK AO2 SLP215 T01000083
KSBY 010536Z 0106/0206 10004KT P6SM OVC050 
     TEMPO 0106/0108 -RA 
     FM011200 15004KT 4SM BR OVC025 
     FM011500 16007KT 3SM -RA BR OVC009 
     FM012100 21010KT 4SM -RA BR OVC015 
     FM020000 20006KT 4SM BR OVC015